sensor_id;sensor_type;location;lat;lon;timestamp;P1;durP1;ratioP1;P2;durP2;ratioP2
20181;SDS011;10250;50.756;6.172;2023-06-05T00:00:44;8.17;;;2.40;;
20181;SDS011;10250;50.756;6.172;2023-06-05T00:02:45;7.83;;;1.90;;
20181;SDS011;10250;50.756;6.172;2023-06-05T00:04:47;9.50;;;2.30;;
20181;SDS011;10250;50.756;6.172;2023-06-05T00:06:49;8.90;;;1.93;;
20181;SDS011;10250;50.756;6.172;2023-06-05T00:08:50;7.93;;;2.27;;
20181;SDS011;10250;50.756;6.172;2023-06-05T00:10:51;8.53;;;2.27;;
20181;SDS011;10250;50.756;6.172;2023-06-05T00:12:52;8.90;;;2.30;;
20181;SDS011;10250;50.756;6.172;2023-06-05T00:14:53;12.87;;;2.47;;
20181;SDS011;10250;50.756;6.172;2023-06-05T00:16:54;8.97;;;2.27;;
20181;SDS011;10250;50.756;6.172;2023-06-05T00:18:57;9.37;;;2.40;;
20181;SDS011;10250;50.756;6.172;2023-06-05T00:20:58;8.33;;;2.00;;
20181;SDS011;10250;50.756;6.172;2023-06-05T00:22:59;9.80;;;2.53;;
20181;SDS011;10250;50.756;6.172;2023-06-05T00:25:01;9.90;;;2.50;;
20181;SDS011;10250;50.756;6.172;2023-06-05T00:27:02;8.57;;;2.13;;
20181;SDS011;10250;50.756;6.172;2023-06-05T00:29:02;10.43;;;2.23;;
20181;SDS011;10250;50.756;6.172;2023-06-05T00:31:04;7.23;;;2.27;;
20181;SDS011;10250;50.756;6.172;2023-06-05T00:33:06;10.83;;;2.30;;
20181;SDS011;10250;50.756;6.172;2023-06-05T00:35:07;7.47;;;2.27;;
20181;SDS011;10250;50.756;6.172;2023-06-05T00:37:08;10.33;;;2.17;;
20181;SDS011;10250;50.756;6.172;2023-06-05T00:39:09;7.50;;;2.17;;
20181;SDS011;10250;50.756;6.172;2023-06-05T00:41:10;7.40;;;2.03;;
20181;SDS011;10250;50.756;6.172;2023-06-05T00:43:11;9.23;;;2.07;;
20181;SDS011;10250;50.756;6.172;2023-06-05T00:45:12;6.67;;;1.80;;
20181;SDS011;10250;50.756;6.172;2023-06-05T00:47:13;7.10;;;2.17;;
20181;SDS011;10250;50.756;6.172;2023-06-05T00:49:15;6.67;;;2.13;;
20181;SDS011;10250;50.756;6.172;2023-06-05T00:51:16;8.27;;;2.10;;
20181;SDS011;10250;50.756;6.172;2023-06-05T00:53:17;10.67;;;2.17;;
20181;SDS011;10250;50.756;6.172;2023-06-05T00:55:18;6.90;;;2.20;;
20181;SDS011;10250;50.756;6.172;2023-06-05T00:57:20;8.40;;;2.27;;
20181;SDS011;10250;50.756;6.172;2023-06-05T00:59:24;9.50;;;2.20;;
20181;SDS011;10250;50.756;6.172;2023-06-05T01:01:25;8.67;;;1.90;;
20181;SDS011;10250;50.756;6.172;2023-06-05T01:03:28;8.60;;;1.90;;
20181;SDS011;10250;50.756;6.172;2023-06-05T01:05:33;8.30;;;2.07;;
20181;SDS011;10250;50.756;6.172;2023-06-05T01:07:36;8.33;;;2.30;;
20181;SDS011;10250;50.756;6.172;2023-06-05T01:09:40;8.27;;;2.30;;
20181;SDS011;10250;50.756;6.172;2023-06-05T01:13:54;10.97;;;2.37;;
20181;SDS011;10250;50.756;6.172;2023-06-05T01:15:55;8.57;;;2.40;;
20181;SDS011;10250;50.756;6.172;2023-06-05T01:17:57;7.33;;;2.10;;
20181;SDS011;10250;50.756;6.172;2023-06-05T01:19:58;7.57;;;2.20;;
20181;SDS011;10250;50.756;6.172;2023-06-05T01:22:09;9.03;;;2.43;;
20181;SDS011;10250;50.756;6.172;2023-06-05T01:24:12;7.70;;;2.30;;
20181;SDS011;10250;50.756;6.172;2023-06-05T01:26:17;8.93;;;2.30;;
20181;SDS011;10250;50.756;6.172;2023-06-05T01:28:23;5.87;;;2.00;;
20181;SDS011;10250;50.756;6.172;2023-06-05T01:32:40;7.50;;;1.93;;
20181;SDS011;10250;50.756;6.172;2023-06-05T01:34:42;10.03;;;2.47;;
20181;SDS011;10250;50.756;6.172;2023-06-05T01:36:44;7.87;;;2.17;;
20181;SDS011;10250;50.756;6.172;2023-06-05T01:38:45;7.47;;;2.03;;
20181;SDS011;10250;50.756;6.172;2023-06-05T01:40:47;10.20;;;2.40;;
20181;SDS011;10250;50.756;6.172;2023-06-05T01:42:50;6.90;;;2.10;;
20181;SDS011;10250;50.756;6.172;2023-06-05T01:44:51;8.03;;;2.20;;
20181;SDS011;10250;50.756;6.172;2023-06-05T01:46:53;9.73;;;2.80;;
20181;SDS011;10250;50.756;6.172;2023-06-05T01:48:54;7.53;;;2.03;;
20181;SDS011;10250;50.756;6.172;2023-06-05T01:50:58;8.60;;;2.37;;
20181;SDS011;10250;50.756;6.172;2023-06-05T01:52:59;9.00;;;2.40;;
20181;SDS011;10250;50.756;6.172;2023-06-05T01:55:02;9.80;;;2.07;;
20181;SDS011;10250;50.756;6.172;2023-06-05T01:57:04;10.07;;;2.20;;
20181;SDS011;10250;50.756;6.172;2023-06-05T01:59:05;10.93;;;2.40;;
20181;SDS011;10250;50.756;6.172;2023-06-05T02:01:07;9.67;;;2.27;;
20181;SDS011;10250;50.756;6.172;2023-06-05T02:03:08;9.00;;;2.20;;
20181;SDS011;10250;50.756;6.172;2023-06-05T02:05:09;9.83;;;2.50;;
20181;SDS011;10250;50.756;6.172;2023-06-05T02:07:10;9.30;;;2.27;;
20181;SDS011;10250;50.756;6.172;2023-06-05T02:09:12;9.13;;;2.57;;
20181;SDS011;10250;50.756;6.172;2023-06-05T02:11:13;8.63;;;2.20;;
20181;SDS011;10250;50.756;6.172;2023-06-05T02:13:14;6.93;;;2.20;;
20181;SDS011;10250;50.756;6.172;2023-06-05T02:15:16;8.73;;;2.20;;
20181;SDS011;10250;50.756;6.172;2023-06-05T02:17:17;9.80;;;2.03;;
20181;SDS011;10250;50.756;6.172;2023-06-05T02:19:19;7.73;;;2.20;;
20181;SDS011;10250;50.756;6.172;2023-06-05T02:21:20;8.07;;;2.23;;
20181;SDS011;10250;50.756;6.172;2023-06-05T02:25:28;9.00;;;2.37;;
20181;SDS011;10250;50.756;6.172;2023-06-05T02:27:29;9.90;;;2.43;;
20181;SDS011;10250;50.756;6.172;2023-06-05T02:29:30;11.07;;;2.50;;
20181;SDS011;10250;50.756;6.172;2023-06-05T02:31:32;6.20;;;1.87;;
20181;SDS011;10250;50.756;6.172;2023-06-05T02:33:34;8.03;;;2.10;;
20181;SDS011;10250;50.756;6.172;2023-06-05T02:35:35;7.40;;;2.07;;
20181;SDS011;10250;50.756;6.172;2023-06-05T02:37:37;6.37;;;1.90;;
20181;SDS011;10250;50.756;6.172;2023-06-05T02:39:43;10.20;;;2.40;;
20181;SDS011;10250;50.756;6.172;2023-06-05T02:41:44;8.60;;;2.20;;
20181;SDS011;10250;50.756;6.172;2023-06-05T02:43:45;10.93;;;2.27;;
20181;SDS011;10250;50.756;6.172;2023-06-05T02:45:46;8.00;;;2.20;;
20181;SDS011;10250;50.756;6.172;2023-06-05T02:47:50;7.93;;;2.20;;
20181;SDS011;10250;50.756;6.172;2023-06-05T02:49:51;9.60;;;2.33;;
20181;SDS011;10250;50.756;6.172;2023-06-05T02:51:52;6.20;;;2.10;;
20181;SDS011;10250;50.756;6.172;2023-06-05T02:53:53;9.17;;;2.10;;
20181;SDS011;10250;50.756;6.172;2023-06-05T02:55:54;11.87;;;2.20;;
20181;SDS011;10250;50.756;6.172;2023-06-05T02:57:55;7.90;;;2.17;;
20181;SDS011;10250;50.756;6.172;2023-06-05T02:59:57;8.73;;;2.50;;
20181;SDS011;10250;50.756;6.172;2023-06-05T03:01:58;8.33;;;2.10;;
20181;SDS011;10250;50.756;6.172;2023-06-05T03:04:00;9.67;;;2.27;;
20181;SDS011;10250;50.756;6.172;2023-06-05T03:06:02;12.60;;;2.57;;
20181;SDS011;10250;50.756;6.172;2023-06-05T03:08:07;10.83;;;2.40;;
20181;SDS011;10250;50.756;6.172;2023-06-05T03:10:08;6.73;;;2.13;;
20181;SDS011;10250;50.756;6.172;2023-06-05T03:12:09;8.83;;;2.47;;
20181;SDS011;10250;50.756;6.172;2023-06-05T03:14:10;7.03;;;2.00;;
20181;SDS011;10250;50.756;6.172;2023-06-05T03:16:11;9.10;;;2.33;;
20181;SDS011;10250;50.756;6.172;2023-06-05T03:18:13;7.37;;;2.17;;
20181;SDS011;10250;50.756;6.172;2023-06-05T03:20:15;8.93;;;2.30;;
20181;SDS011;10250;50.756;6.172;2023-06-05T03:22:17;11.00;;;2.60;;
20181;SDS011;10250;50.756;6.172;2023-06-05T03:24:18;7.43;;;2.30;;
20181;SDS011;10250;50.756;6.172;2023-06-05T03:26:19;8.00;;;2.10;;
20181;SDS011;10250;50.756;6.172;2023-06-05T03:28:22;9.10;;;2.13;;
20181;SDS011;10250;50.756;6.172;2023-06-05T03:30:23;8.77;;;2.47;;
20181;SDS011;10250;50.756;6.172;2023-06-05T03:32:25;9.73;;;2.37;;
20181;SDS011;10250;50.756;6.172;2023-06-05T03:34:26;8.97;;;2.37;;
20181;SDS011;10250;50.756;6.172;2023-06-05T03:36:27;11.73;;;2.43;;
20181;SDS011;10250;50.756;6.172;2023-06-05T03:38:28;8.17;;;2.20;;
20181;SDS011;10250;50.756;6.172;2023-06-05T03:40:29;8.80;;;2.03;;
20181;SDS011;10250;50.756;6.172;2023-06-05T03:42:31;9.23;;;2.40;;
20181;SDS011;10250;50.756;6.172;2023-06-05T03:44:32;10.77;;;2.40;;
20181;SDS011;10250;50.756;6.172;2023-06-05T03:46:33;10.47;;;2.60;;
20181;SDS011;10250;50.756;6.172;2023-06-05T03:48:35;8.60;;;2.10;;
20181;SDS011;10250;50.756;6.172;2023-06-05T03:50:36;9.40;;;2.43;;
20181;SDS011;10250;50.756;6.172;2023-06-05T03:52:38;7.13;;;2.17;;
20181;SDS011;10250;50.756;6.172;2023-06-05T03:54:39;11.37;;;2.10;;
20181;SDS011;10250;50.756;6.172;2023-06-05T03:56:40;9.63;;;2.20;;
20181;SDS011;10250;50.756;6.172;2023-06-05T03:58:43;9.87;;;2.40;;
20181;SDS011;10250;50.756;6.172;2023-06-05T04:00:46;10.43;;;2.23;;
20181;SDS011;10250;50.756;6.172;2023-06-05T04:02:51;9.23;;;2.40;;
20181;SDS011;10250;50.756;6.172;2023-06-05T04:04:52;7.50;;;2.20;;
20181;SDS011;10250;50.756;6.172;2023-06-05T04:06:56;10.60;;;2.33;;
20181;SDS011;10250;50.756;6.172;2023-06-05T04:08:57;9.27;;;2.43;;
20181;SDS011;10250;50.756;6.172;2023-06-05T04:10:58;7.10;;;2.20;;
20181;SDS011;10250;50.756;6.172;2023-06-05T04:12:59;10.67;;;2.23;;
20181;SDS011;10250;50.756;6.172;2023-06-05T04:15:01;9.43;;;2.40;;
20181;SDS011;10250;50.756;6.172;2023-06-05T04:17:02;10.53;;;2.70;;
20181;SDS011;10250;50.756;6.172;2023-06-05T04:19:06;10.33;;;2.37;;
20181;SDS011;10250;50.756;6.172;2023-06-05T04:21:09;14.47;;;2.30;;
20181;SDS011;10250;50.756;6.172;2023-06-05T04:23:10;9.67;;;2.33;;
20181;SDS011;10250;50.756;6.172;2023-06-05T04:25:11;8.70;;;2.40;;
20181;SDS011;10250;50.756;6.172;2023-06-05T04:27:12;9.07;;;2.50;;
20181;SDS011;10250;50.756;6.172;2023-06-05T04:29:14;8.33;;;2.10;;
20181;SDS011;10250;50.756;6.172;2023-06-05T04:31:16;9.23;;;2.50;;
20181;SDS011;10250;50.756;6.172;2023-06-05T04:33:17;10.43;;;2.30;;
20181;SDS011;10250;50.756;6.172;2023-06-05T04:35:18;9.73;;;2.33;;
20181;SDS011;10250;50.756;6.172;2023-06-05T04:37:19;9.20;;;2.50;;
20181;SDS011;10250;50.756;6.172;2023-06-05T04:39:20;11.77;;;2.73;;
20181;SDS011;10250;50.756;6.172;2023-06-05T04:41:21;10.40;;;2.50;;
20181;SDS011;10250;50.756;6.172;2023-06-05T04:43:22;9.13;;;2.40;;
20181;SDS011;10250;50.756;6.172;2023-06-05T04:45:24;9.23;;;2.30;;
20181;SDS011;10250;50.756;6.172;2023-06-05T04:47:25;10.17;;;2.27;;
20181;SDS011;10250;50.756;6.172;2023-06-05T04:49:26;9.43;;;2.33;;
20181;SDS011;10250;50.756;6.172;2023-06-05T04:51:28;8.93;;;2.57;;
20181;SDS011;10250;50.756;6.172;2023-06-05T04:53:29;10.17;;;2.50;;
20181;SDS011;10250;50.756;6.172;2023-06-05T04:55:31;11.30;;;2.60;;
20181;SDS011;10250;50.756;6.172;2023-06-05T04:57:32;9.37;;;2.70;;
20181;SDS011;10250;50.756;6.172;2023-06-05T04:59:33;9.77;;;2.70;;
20181;SDS011;10250;50.756;6.172;2023-06-05T05:01:35;11.07;;;2.50;;
20181;SDS011;10250;50.756;6.172;2023-06-05T05:03:36;11.73;;;2.57;;
20181;SDS011;10250;50.756;6.172;2023-06-05T05:05:37;9.73;;;2.47;;
20181;SDS011;10250;50.756;6.172;2023-06-05T05:07:41;11.97;;;2.50;;
20181;SDS011;10250;50.756;6.172;2023-06-05T05:09:43;12.17;;;2.53;;
20181;SDS011;10250;50.756;6.172;2023-06-05T05:11:44;9.80;;;2.63;;
20181;SDS011;10250;50.756;6.172;2023-06-05T05:13:45;10.63;;;2.57;;
20181;SDS011;10250;50.756;6.172;2023-06-05T05:15:46;9.63;;;2.50;;
20181;SDS011;10250;50.756;6.172;2023-06-05T05:17:48;8.40;;;2.20;;
20181;SDS011;10250;50.756;6.172;2023-06-05T05:19:49;11.53;;;3.17;;
20181;SDS011;10250;50.756;6.172;2023-06-05T05:21:53;11.50;;;2.53;;
20181;SDS011;10250;50.756;6.172;2023-06-05T05:23:54;12.57;;;2.80;;
20181;SDS011;10250;50.756;6.172;2023-06-05T05:25:55;11.13;;;2.70;;
20181;SDS011;10250;50.756;6.172;2023-06-05T05:27:56;14.97;;;3.20;;
20181;SDS011;10250;50.756;6.172;2023-06-05T05:29:57;12.33;;;3.03;;
20181;SDS011;10250;50.756;6.172;2023-06-05T05:31:58;10.57;;;2.73;;
20181;SDS011;10250;50.756;6.172;2023-06-05T05:33:59;13.60;;;3.00;;
20181;SDS011;10250;50.756;6.172;2023-06-05T05:36:00;9.23;;;2.63;;
20181;SDS011;10250;50.756;6.172;2023-06-05T05:38:02;13.73;;;2.87;;
20181;SDS011;10250;50.756;6.172;2023-06-05T05:40:03;12.33;;;3.00;;
20181;SDS011;10250;50.756;6.172;2023-06-05T05:42:05;10.73;;;2.53;;
20181;SDS011;10250;50.756;6.172;2023-06-05T05:44:06;14.00;;;3.20;;
20181;SDS011;10250;50.756;6.172;2023-06-05T05:46:07;13.77;;;3.10;;
20181;SDS011;10250;50.756;6.172;2023-06-05T05:48:08;12.57;;;3.20;;
20181;SDS011;10250;50.756;6.172;2023-06-05T05:50:10;13.03;;;3.37;;
20181;SDS011;10250;50.756;6.172;2023-06-05T05:52:10;12.50;;;3.30;;
20181;SDS011;10250;50.756;6.172;2023-06-05T05:54:11;11.40;;;2.93;;
20181;SDS011;10250;50.756;6.172;2023-06-05T05:56:12;11.83;;;3.10;;
20181;SDS011;10250;50.756;6.172;2023-06-05T05:58:13;10.53;;;2.70;;
20181;SDS011;10250;50.756;6.172;2023-06-05T06:00:15;13.97;;;3.10;;
20181;SDS011;10250;50.756;6.172;2023-06-05T06:02:16;9.80;;;2.77;;
20181;SDS011;10250;50.756;6.172;2023-06-05T06:04:17;11.53;;;3.20;;
20181;SDS011;10250;50.756;6.172;2023-06-05T06:06:18;14.30;;;3.30;;
20181;SDS011;10250;50.756;6.172;2023-06-05T06:08:20;13.37;;;3.47;;
20181;SDS011;10250;50.756;6.172;2023-06-05T06:10:21;12.37;;;3.20;;
20181;SDS011;10250;50.756;6.172;2023-06-05T06:12:22;13.80;;;3.17;;
20181;SDS011;10250;50.756;6.172;2023-06-05T06:14:23;11.60;;;3.30;;
20181;SDS011;10250;50.756;6.172;2023-06-05T06:16:24;10.93;;;3.17;;
20181;SDS011;10250;50.756;6.172;2023-06-05T06:18:25;12.30;;;3.30;;
20181;SDS011;10250;50.756;6.172;2023-06-05T06:20:26;11.80;;;2.87;;
20181;SDS011;10250;50.756;6.172;2023-06-05T06:22:27;11.77;;;3.00;;
20181;SDS011;10250;50.756;6.172;2023-06-05T06:24:29;11.83;;;2.80;;
20181;SDS011;10250;50.756;6.172;2023-06-05T06:26:29;10.60;;;3.00;;
20181;SDS011;10250;50.756;6.172;2023-06-05T06:28:31;10.70;;;2.93;;
20181;SDS011;10250;50.756;6.172;2023-06-05T06:30:32;8.60;;;2.57;;
20181;SDS011;10250;50.756;6.172;2023-06-05T06:32:33;12.67;;;2.90;;
20181;SDS011;10250;50.756;6.172;2023-06-05T06:34:33;10.03;;;2.80;;
20181;SDS011;10250;50.756;6.172;2023-06-05T06:36:34;10.93;;;2.73;;
20181;SDS011;10250;50.756;6.172;2023-06-05T06:38:40;10.30;;;2.57;;
20181;SDS011;10250;50.756;6.172;2023-06-05T06:40:41;10.53;;;2.83;;
20181;SDS011;10250;50.756;6.172;2023-06-05T06:42:42;10.10;;;2.47;;
20181;SDS011;10250;50.756;6.172;2023-06-05T06:44:43;9.80;;;2.60;;
20181;SDS011;10250;50.756;6.172;2023-06-05T06:46:44;10.47;;;2.80;;
20181;SDS011;10250;50.756;6.172;2023-06-05T06:48:45;11.83;;;2.90;;
20181;SDS011;10250;50.756;6.172;2023-06-05T06:50:46;11.00;;;2.80;;
20181;SDS011;10250;50.756;6.172;2023-06-05T06:52:47;9.30;;;2.50;;
20181;SDS011;10250;50.756;6.172;2023-06-05T06:54:49;10.87;;;2.50;;
20181;SDS011;10250;50.756;6.172;2023-06-05T06:56:50;11.07;;;3.10;;
20181;SDS011;10250;50.756;6.172;2023-06-05T06:58:52;9.27;;;2.33;;
20181;SDS011;10250;50.756;6.172;2023-06-05T07:00:54;10.73;;;2.80;;
20181;SDS011;10250;50.756;6.172;2023-06-05T07:02:55;9.43;;;2.70;;
20181;SDS011;10250;50.756;6.172;2023-06-05T07:04:56;11.57;;;2.90;;
20181;SDS011;10250;50.756;6.172;2023-06-05T07:06:57;12.40;;;2.83;;
20181;SDS011;10250;50.756;6.172;2023-06-05T07:08:58;9.50;;;2.27;;
20181;SDS011;10250;50.756;6.172;2023-06-05T07:10:59;13.47;;;3.27;;
20181;SDS011;10250;50.756;6.172;2023-06-05T07:13:00;8.57;;;2.47;;
20181;SDS011;10250;50.756;6.172;2023-06-05T07:15:01;10.50;;;2.57;;
20181;SDS011;10250;50.756;6.172;2023-06-05T07:17:02;11.07;;;2.70;;
20181;SDS011;10250;50.756;6.172;2023-06-05T07:19:03;9.13;;;2.70;;
20181;SDS011;10250;50.756;6.172;2023-06-05T07:21:04;10.90;;;2.87;;
20181;SDS011;10250;50.756;6.172;2023-06-05T07:23:06;12.30;;;3.10;;
20181;SDS011;10250;50.756;6.172;2023-06-05T07:25:07;11.93;;;3.23;;
20181;SDS011;10250;50.756;6.172;2023-06-05T07:27:09;10.33;;;2.60;;
20181;SDS011;10250;50.756;6.172;2023-06-05T07:29:11;14.27;;;3.23;;
20181;SDS011;10250;50.756;6.172;2023-06-05T07:31:14;12.97;;;3.13;;
20181;SDS011;10250;50.756;6.172;2023-06-05T07:33:17;13.50;;;3.07;;
20181;SDS011;10250;50.756;6.172;2023-06-05T07:35:18;11.93;;;3.07;;
20181;SDS011;10250;50.756;6.172;2023-06-05T07:37:20;10.40;;;3.20;;
20181;SDS011;10250;50.756;6.172;2023-06-05T07:39:21;13.27;;;3.17;;
20181;SDS011;10250;50.756;6.172;2023-06-05T07:41:23;13.80;;;3.23;;
20181;SDS011;10250;50.756;6.172;2023-06-05T07:43:25;13.77;;;3.13;;
20181;SDS011;10250;50.756;6.172;2023-06-05T07:45:26;12.73;;;2.70;;
20181;SDS011;10250;50.756;6.172;2023-06-05T07:47:27;14.90;;;3.30;;
20181;SDS011;10250;50.756;6.172;2023-06-05T07:49:29;11.23;;;2.87;;
20181;SDS011;10250;50.756;6.172;2023-06-05T07:51:32;12.47;;;3.07;;
20181;SDS011;10250;50.756;6.172;2023-06-05T07:53:35;13.87;;;2.73;;
20181;SDS011;10250;50.756;6.172;2023-06-05T07:55:36;11.03;;;2.77;;
20181;SDS011;10250;50.756;6.172;2023-06-05T07:57:37;13.37;;;2.87;;
20181;SDS011;10250;50.756;6.172;2023-06-05T07:59:38;12.43;;;2.80;;
20181;SDS011;10250;50.756;6.172;2023-06-05T08:01:39;14.40;;;2.37;;
20181;SDS011;10250;50.756;6.172;2023-06-05T08:03:41;9.97;;;2.67;;
20181;SDS011;10250;50.756;6.172;2023-06-05T08:05:43;12.00;;;2.90;;
20181;SDS011;10250;50.756;6.172;2023-06-05T08:07:44;10.63;;;2.60;;
20181;SDS011;10250;50.756;6.172;2023-06-05T08:09:46;11.63;;;2.90;;
20181;SDS011;10250;50.756;6.172;2023-06-05T08:11:46;11.17;;;2.60;;
20181;SDS011;10250;50.756;6.172;2023-06-05T08:13:48;8.73;;;2.57;;
20181;SDS011;10250;50.756;6.172;2023-06-05T08:15:49;12.17;;;2.50;;
20181;SDS011;10250;50.756;6.172;2023-06-05T08:17:50;10.57;;;2.60;;
20181;SDS011;10250;50.756;6.172;2023-06-05T08:19:51;11.13;;;2.90;;
20181;SDS011;10250;50.756;6.172;2023-06-05T08:21:53;13.23;;;3.00;;
20181;SDS011;10250;50.756;6.172;2023-06-05T08:26:05;11.97;;;2.40;;
20181;SDS011;10250;50.756;6.172;2023-06-05T08:28:10;10.90;;;2.30;;
20181;SDS011;10250;50.756;6.172;2023-06-05T08:30:11;7.50;;;2.03;;
20181;SDS011;10250;50.756;6.172;2023-06-05T08:32:13;11.63;;;2.43;;
20181;SDS011;10250;50.756;6.172;2023-06-05T08:34:14;9.47;;;2.27;;
20181;SDS011;10250;50.756;6.172;2023-06-05T08:36:15;7.87;;;2.30;;
20181;SDS011;10250;50.756;6.172;2023-06-05T08:38:16;9.90;;;2.00;;
20181;SDS011;10250;50.756;6.172;2023-06-05T08:40:18;8.27;;;2.20;;
20181;SDS011;10250;50.756;6.172;2023-06-05T08:42:19;7.60;;;2.00;;
20181;SDS011;10250;50.756;6.172;2023-06-05T08:44:25;7.33;;;2.00;;
20181;SDS011;10250;50.756;6.172;2023-06-05T08:46:28;8.70;;;1.97;;
20181;SDS011;10250;50.756;6.172;2023-06-05T08:48:31;9.20;;;2.03;;
20181;SDS011;10250;50.756;6.172;2023-06-05T08:50:34;8.90;;;1.93;;
20181;SDS011;10250;50.756;6.172;2023-06-05T08:52:38;10.00;;;2.30;;
20181;SDS011;10250;50.756;6.172;2023-06-05T08:54:40;9.87;;;2.27;;
20181;SDS011;10250;50.756;6.172;2023-06-05T08:56:41;8.07;;;2.30;;
20181;SDS011;10250;50.756;6.172;2023-06-05T08:58:43;7.80;;;2.03;;
20181;SDS011;10250;50.756;6.172;2023-06-05T09:00:45;9.20;;;2.27;;
20181;SDS011;10250;50.756;6.172;2023-06-05T09:02:48;10.17;;;2.17;;
20181;SDS011;10250;50.756;6.172;2023-06-05T09:04:49;9.70;;;2.47;;
20181;SDS011;10250;50.756;6.172;2023-06-05T09:06:51;6.17;;;2.10;;
20181;SDS011;10250;50.756;6.172;2023-06-05T09:08:52;9.87;;;2.10;;
20181;SDS011;10250;50.756;6.172;2023-06-05T09:10:53;8.87;;;2.40;;
20181;SDS011;10250;50.756;6.172;2023-06-05T09:13:03;8.23;;;2.10;;
20181;SDS011;10250;50.756;6.172;2023-06-05T09:15:20;7.93;;;2.00;;
20181;SDS011;10250;50.756;6.172;2023-06-05T09:17:22;10.40;;;2.20;;
20181;SDS011;10250;50.756;6.172;2023-06-05T09:19:23;7.13;;;2.07;;
20181;SDS011;10250;50.756;6.172;2023-06-05T09:21:27;9.37;;;2.20;;
20181;SDS011;10250;50.756;6.172;2023-06-05T09:23:30;7.87;;;2.00;;
20181;SDS011;10250;50.756;6.172;2023-06-05T09:25:47;6.87;;;1.80;;
20181;SDS011;10250;50.756;6.172;2023-06-05T09:28:06;7.60;;;2.10;;
20181;SDS011;10250;50.756;6.172;2023-06-05T09:30:07;8.73;;;1.80;;
20181;SDS011;10250;50.756;6.172;2023-06-05T09:32:10;8.20;;;1.93;;
20181;SDS011;10250;50.756;6.172;2023-06-05T09:34:23;7.43;;;1.93;;
20181;SDS011;10250;50.756;6.172;2023-06-05T09:36:24;7.63;;;1.83;;
20181;SDS011;10250;50.756;6.172;2023-06-05T09:38:34;7.00;;;1.90;;
20181;SDS011;10250;50.756;6.172;2023-06-05T09:40:38;9.40;;;2.00;;
20181;SDS011;10250;50.756;6.172;2023-06-05T09:42:40;8.83;;;2.17;;
20181;SDS011;10250;50.756;6.172;2023-06-05T09:44:41;6.43;;;2.00;;
20181;SDS011;10250;50.756;6.172;2023-06-05T09:47:05;10.23;;;2.10;;
20181;SDS011;10250;50.756;6.172;2023-06-05T09:49:07;6.03;;;1.70;;
20181;SDS011;10250;50.756;6.172;2023-06-05T09:51:09;8.73;;;1.87;;
20181;SDS011;10250;50.756;6.172;2023-06-05T09:53:12;7.80;;;1.63;;
20181;SDS011;10250;50.756;6.172;2023-06-05T09:55:16;7.17;;;1.73;;
20181;SDS011;10250;50.756;6.172;2023-06-05T09:57:17;6.53;;;1.63;;
20181;SDS011;10250;50.756;6.172;2023-06-05T09:59:21;7.40;;;2.00;;
20181;SDS011;10250;50.756;6.172;2023-06-05T10:01:23;7.07;;;2.00;;
20181;SDS011;10250;50.756;6.172;2023-06-05T10:03:24;9.50;;;2.00;;
20181;SDS011;10250;50.756;6.172;2023-06-05T10:05:26;9.10;;;1.70;;
20181;SDS011;10250;50.756;6.172;2023-06-05T10:07:29;9.40;;;2.00;;
20181;SDS011;10250;50.756;6.172;2023-06-05T10:09:31;5.93;;;1.60;;
20181;SDS011;10250;50.756;6.172;2023-06-05T10:11:32;10.50;;;2.50;;
20181;SDS011;10250;50.756;6.172;2023-06-05T10:13:33;7.80;;;1.87;;
20181;SDS011;10250;50.756;6.172;2023-06-05T10:15:34;5.93;;;1.67;;
20181;SDS011;10250;50.756;6.172;2023-06-05T10:17:38;7.17;;;2.07;;
20181;SDS011;10250;50.756;6.172;2023-06-05T10:19:41;9.40;;;2.37;;
20181;SDS011;10250;50.756;6.172;2023-06-05T10:21:42;5.73;;;1.67;;
20181;SDS011;10250;50.756;6.172;2023-06-05T10:26:00;8.83;;;1.93;;
20181;SDS011;10250;50.756;6.172;2023-06-05T10:28:13;9.37;;;2.40;;
20181;SDS011;10250;50.756;6.172;2023-06-05T10:32:44;9.90;;;2.30;;
20181;SDS011;10250;50.756;6.172;2023-06-05T10:39:07;7.67;;;1.73;;
20181;SDS011;10250;50.756;6.172;2023-06-05T10:41:08;6.57;;;1.60;;
20181;SDS011;10250;50.756;6.172;2023-06-05T10:45:29;8.33;;;1.93;;
20181;SDS011;10250;50.756;6.172;2023-06-05T10:49:35;6.00;;;1.80;;
20181;SDS011;10250;50.756;6.172;2023-06-05T10:53:41;8.50;;;2.00;;
20181;SDS011;10250;50.756;6.172;2023-06-05T10:55:42;8.90;;;1.90;;
20181;SDS011;10250;50.756;6.172;2023-06-05T11:00:05;6.33;;;1.80;;
20181;SDS011;10250;50.756;6.172;2023-06-05T11:04:15;7.13;;;1.80;;
20181;SDS011;10250;50.756;6.172;2023-06-05T11:06:17;8.07;;;1.50;;
20181;SDS011;10250;50.756;6.172;2023-06-05T11:08:18;7.83;;;2.10;;
20181;SDS011;10250;50.756;6.172;2023-06-05T11:10:20;6.33;;;1.80;;
20181;SDS011;10250;50.756;6.172;2023-06-05T11:12:21;10.40;;;1.97;;
20181;SDS011;10250;50.756;6.172;2023-06-05T11:14:22;7.50;;;1.93;;
20181;SDS011;10250;50.756;6.172;2023-06-05T11:16:29;8.57;;;2.07;;
20181;SDS011;10250;50.756;6.172;2023-06-05T11:22:32;9.47;;;1.90;;
20181;SDS011;10250;50.756;6.172;2023-06-05T11:24:34;7.10;;;2.13;;
20181;SDS011;10250;50.756;6.172;2023-06-05T11:26:38;8.23;;;1.80;;
20181;SDS011;10250;50.756;6.172;2023-06-05T11:28:40;7.70;;;1.80;;
20181;SDS011;10250;50.756;6.172;2023-06-05T11:30:42;7.83;;;1.90;;
20181;SDS011;10250;50.756;6.172;2023-06-05T11:32:43;6.33;;;1.90;;
20181;SDS011;10250;50.756;6.172;2023-06-05T11:34:47;6.67;;;1.73;;
20181;SDS011;10250;50.756;6.172;2023-06-05T11:36:48;14.67;;;2.50;;
20181;SDS011;10250;50.756;6.172;2023-06-05T11:38:53;8.67;;;2.10;;
20181;SDS011;10250;50.756;6.172;2023-06-05T11:40:56;11.00;;;2.13;;
20181;SDS011;10250;50.756;6.172;2023-06-05T11:43:01;8.03;;;1.90;;
20181;SDS011;10250;50.756;6.172;2023-06-05T11:45:03;7.17;;;2.00;;
20181;SDS011;10250;50.756;6.172;2023-06-05T11:47:21;6.77;;;2.00;;
20181;SDS011;10250;50.756;6.172;2023-06-05T11:49:27;6.47;;;2.10;;
20181;SDS011;10250;50.756;6.172;2023-06-05T11:51:35;11.40;;;2.50;;
20181;SDS011;10250;50.756;6.172;2023-06-05T11:53:42;9.27;;;2.10;;
20181;SDS011;10250;50.756;6.172;2023-06-05T11:55:43;9.43;;;2.23;;
20181;SDS011;10250;50.756;6.172;2023-06-05T11:58:08;7.87;;;2.20;;
20181;SDS011;10250;50.756;6.172;2023-06-05T12:00:09;8.27;;;1.93;;
20181;SDS011;10250;50.756;6.172;2023-06-05T12:02:11;9.03;;;2.10;;
20181;SDS011;10250;50.756;6.172;2023-06-05T12:04:12;6.87;;;2.10;;
20181;SDS011;10250;50.756;6.172;2023-06-05T12:06:14;10.03;;;2.33;;
20181;SDS011;10250;50.756;6.172;2023-06-05T12:08:25;6.53;;;1.80;;
20181;SDS011;10250;50.756;6.172;2023-06-05T12:10:33;9.50;;;2.23;;
20181;SDS011;10250;50.756;6.172;2023-06-05T12:12:53;10.43;;;2.20;;
20181;SDS011;10250;50.756;6.172;2023-06-05T12:14:54;11.40;;;2.30;;
20181;SDS011;10250;50.756;6.172;2023-06-05T12:16:55;7.57;;;2.20;;
20181;SDS011;10250;50.756;6.172;2023-06-05T12:18:56;8.87;;;2.17;;
20181;SDS011;10250;50.756;6.172;2023-06-05T12:20:57;8.33;;;2.13;;
20181;SDS011;10250;50.756;6.172;2023-06-05T12:22:58;10.43;;;2.10;;
20181;SDS011;10250;50.756;6.172;2023-06-05T12:25:14;8.63;;;2.20;;
20181;SDS011;10250;50.756;6.172;2023-06-05T12:27:16;10.53;;;2.50;;
20181;SDS011;10250;50.756;6.172;2023-06-05T12:29:17;10.60;;;2.43;;
20181;SDS011;10250;50.756;6.172;2023-06-05T12:31:33;9.43;;;2.20;;
20181;SDS011;10250;50.756;6.172;2023-06-05T12:33:48;7.33;;;2.10;;
20181;SDS011;10250;50.756;6.172;2023-06-05T12:36:05;6.97;;;2.07;;
20181;SDS011;10250;50.756;6.172;2023-06-05T12:38:06;7.77;;;1.90;;
20181;SDS011;10250;50.756;6.172;2023-06-05T12:40:09;8.93;;;2.27;;
20181;SDS011;10250;50.756;6.172;2023-06-05T12:42:11;7.37;;;2.20;;
20181;SDS011;10250;50.756;6.172;2023-06-05T12:44:12;8.60;;;2.20;;
20181;SDS011;10250;50.756;6.172;2023-06-05T12:46:13;6.80;;;2.00;;